createdAt,value
2023-05-02T00:00:40.919Z,99012.38
2023-05-02T00:03:08.562Z,99021.31
2023-05-02T00:05:35.585Z,99021.63
2023-05-02T00:08:02.333Z,99018.28
2023-05-02T00:10:29.222Z,99022.31
2023-05-02T00:12:56.078Z,99017.47
2023-05-02T00:15:23.009Z,99015.53
2023-05-02T00:17:49.811Z,99014.56
2023-05-02T00:20:16.777Z,99016.78
2023-05-02T00:22:43.455Z,99025.22
2023-05-02T00:25:10.430Z,99025.91
2023-05-02T00:27:37.452Z,99030.31
2023-05-02T00:30:04.490Z,99035.16
2023-05-02T00:32:31.273Z,99030.88
2023-05-02T00:34:57.969Z,99015.00
2023-05-02T00:37:27.778Z,99022.03
2023-05-02T00:39:54.964Z,99029.09
2023-05-02T00:42:21.733Z,99031.16
2023-05-02T00:44:48.636Z,99035.00
2023-05-02T00:47:16.223Z,99034.31
2023-05-02T00:49:42.917Z,99044.13
2023-05-02T00:52:09.933Z,99033.63
2023-05-02T00:54:39.682Z,99035.31
2023-05-02T00:57:07.134Z,99036.00
2023-05-02T00:59:35.428Z,99036.53
2023-05-02T01:02:44.383Z,99036.81
2023-05-02T01:05:22.256Z,99031.28
2023-05-02T01:08:09.334Z,99038.59
2023-05-02T01:11:15.317Z,99041.78
2023-05-02T01:13:44.727Z,99039.72
2023-05-02T01:16:12.648Z,99036.97
2023-05-02T01:18:41.528Z,99031.44
2023-05-02T01:21:10.138Z,99040.28
2023-05-02T01:24:13.297Z,99048.25
2023-05-02T01:26:48.581Z,99044.53
2023-05-02T01:29:16.181Z,99049.09
2023-05-02T01:31:43.947Z,99048.75
2023-05-02T01:34:11.297Z,99044.59
2023-05-02T01:36:45.790Z,99054.63
2023-05-02T01:39:17.075Z,99059.53
2023-05-02T01:41:44.116Z,99047.22
2023-05-02T01:44:11.598Z,99057.59
2023-05-02T01:46:40.611Z,99058.97
2023-05-02T01:49:08.310Z,99066.19
2023-05-02T01:51:37.619Z,99071.41
2023-05-02T01:54:06.118Z,99071.69
2023-05-02T01:56:38.006Z,99068.22
2023-05-02T01:59:07.078Z,99075.81
2023-05-02T02:01:38.615Z,99078.38
2023-05-02T02:04:07.039Z,99083.25
2023-05-02T02:06:34.210Z,99086.53
2023-05-02T02:09:01.312Z,99075.78
2023-05-02T02:11:37.218Z,99083.25
2023-05-02T02:14:07.696Z,99079.91
2023-05-02T02:16:37.888Z,99086.56
2023-05-02T02:19:08.737Z,99082.59
2023-05-02T02:21:36.842Z,99086.19
2023-05-02T02:24:05.872Z,99088.53
2023-05-02T02:26:32.686Z,99084.69
2023-05-02T02:29:00.710Z,99087.50
2023-05-02T02:31:32.199Z,99095.50
2023-05-02T02:33:59.518Z,99094.31
2023-05-02T02:36:56.021Z,99094.75
2023-05-02T02:40:04.395Z,99093.53
2023-05-02T02:42:45.429Z,99089.94
2023-05-02T02:45:20.005Z,99093.25
2023-05-02T02:47:58.939Z,99088.59
2023-05-02T02:50:34.983Z,99095.44
2023-05-02T02:53:18.488Z,99100.44
2023-05-02T02:55:53.893Z,99103.72
2023-05-02T02:58:30.035Z,99108.13
2023-05-02T03:00:57.477Z,99099.69
2023-05-02T03:03:29.394Z,99110.16
2023-05-02T03:05:57.084Z,99106.44
2023-05-02T03:08:24.467Z,99110.16
2023-05-02T03:10:51.683Z,99107.28
2023-05-02T03:13:18.392Z,99111.16
2023-05-02T03:16:13.108Z,99113.75
2023-05-02T03:18:40.783Z,99110.84
2023-05-02T03:21:07.513Z,99117.06
2023-05-02T03:23:34.228Z,99116.38
2023-05-02T03:26:01.049Z,99120.38
2023-05-02T03:28:27.734Z,99129.78
2023-05-02T03:30:54.434Z,99127.97
2023-05-02T03:33:21.128Z,99130.59
2023-05-02T03:35:47.851Z,99130.91
2023-05-02T03:38:14.622Z,99142.91
2023-05-02T03:40:41.289Z,99133.84
2023-05-02T03:43:08.021Z,99146.09
2023-05-02T03:45:34.958Z,99149.94
2023-05-02T03:48:01.732Z,99137.69
2023-05-02T03:50:28.722Z,99149.00
2023-05-02T03:52:55.470Z,99142.78
2023-05-02T03:55:22.247Z,99142.16
2023-05-02T03:57:48.963Z,99153.28
2023-05-02T04:00:16.179Z,99161.09
2023-05-02T04:02:43.035Z,99174.66
2023-05-02T04:05:09.929Z,99172.47
2023-05-02T04:07:36.661Z,99171.34
2023-05-02T04:10:03.738Z,99175.78
2023-05-02T04:12:31.040Z,99177.84
2023-05-02T04:14:57.877Z,99176.59
2023-05-02T04:17:24.587Z,99177.84
2023-05-02T04:19:52.127Z,99183.84
2023-05-02T04:22:18.879Z,99188.38
2023-05-02T04:24:45.672Z,99191.91
2023-05-02T04:27:14.424Z,99193.31
2023-05-02T04:29:41.897Z,99201.03
2023-05-02T04:32:08.624Z,99201.44
2023-05-02T04:34:35.334Z,99202.84
2023-05-02T04:37:02.108Z,99208.09
2023-05-02T04:39:28.799Z,99208.53
2023-05-02T04:41:55.670Z,99215.44
2023-05-02T04:44:22.388Z,99220.72
2023-05-02T04:46:49.121Z,99220.78
2023-05-02T04:49:15.920Z,99229.47
2023-05-02T04:51:42.628Z,99235.53
2023-05-02T04:54:09.371Z,99244.81
2023-05-02T04:56:36.114Z,99249.81
2023-05-02T04:59:02.764Z,99248.44
2023-05-02T05:01:29.566Z,99252.59
2023-05-02T05:03:56.722Z,99260.34
2023-05-02T05:06:24.643Z,99259.25
2023-05-02T05:08:51.419Z,99267.69
2023-05-02T05:11:18.227Z,99269.34
2023-05-02T05:13:44.940Z,99275.88
2023-05-02T05:16:12.318Z,99273.69
2023-05-02T05:18:42.234Z,99268.19
2023-05-02T05:21:09.753Z,99278.19
2023-05-02T05:23:37.574Z,99274.91
2023-05-02T05:26:15.855Z,99283.66
2023-05-02T05:28:43.108Z,99285.06
2023-05-02T05:31:16.589Z,99293.09
2023-05-02T05:33:44.327Z,99294.78
2023-05-02T05:36:13.177Z,99292.91
2023-05-02T05:38:39.960Z,99294.03
2023-05-02T05:41:08.357Z,99301.00
2023-05-02T05:43:37.801Z,99310.69
2023-05-02T05:46:05.171Z,99313.06
2023-05-02T05:48:32.180Z,99319.72
2023-05-02T05:50:58.880Z,99319.88
2023-05-02T05:53:25.982Z,99318.50
2023-05-02T05:55:52.672Z,99317.66
2023-05-02T05:58:19.468Z,99314.13
2023-05-02T06:00:46.217Z,99318.84
2023-05-02T06:03:13.141Z,99324.09
2023-05-02T06:05:39.890Z,99325.63
2023-05-02T06:08:06.764Z,99327.59
2023-05-02T06:10:33.585Z,99329.78
2023-05-02T06:13:00.442Z,99330.91
2023-05-02T06:15:27.117Z,99339.38
2023-05-02T06:17:53.916Z,99342.75
2023-05-02T06:20:20.887Z,99338.44
2023-05-02T06:22:47.623Z,99344.81
2023-05-02T06:25:14.569Z,99342.44
2023-05-02T06:27:41.236Z,99364.44
2023-05-02T06:30:08.637Z,99362.97
2023-05-02T06:32:35.352Z,99361.56
2023-05-02T06:35:02.334Z,99359.47
2023-05-02T06:37:34.946Z,99366.56
2023-05-02T06:40:02.512Z,99368.75
2023-05-02T06:42:29.824Z,99373.91
2023-05-02T06:44:56.876Z,99389.41
2023-05-02T06:47:24.947Z,99383.88
2023-05-02T06:49:53.182Z,99387.34
2023-05-02T06:52:20.293Z,99384.69
2023-05-02T06:54:50.468Z,99387.59
2023-05-02T06:57:17.187Z,99391.47
2023-05-02T06:59:44.122Z,99391.56
2023-05-02T07:02:11.541Z,99405.28
2023-05-02T07:04:38.448Z,99393.63
2023-05-02T07:07:05.398Z,99400.50
2023-05-02T07:09:32.217Z,99409.34
2023-05-02T07:11:58.965Z,99405.78
2023-05-02T07:14:25.647Z,99411.84
2023-05-02T07:16:52.432Z,99413.91
2023-05-02T07:19:19.864Z,99414.84
2023-05-02T07:21:46.651Z,99411.66
2023-05-02T07:24:13.414Z,99419.25
2023-05-02T07:26:40.216Z,99419.84
2023-05-02T07:29:07.134Z,99417.88
2023-05-02T07:31:34.207Z,99413.16
2023-05-02T07:34:00.948Z,99415.19
2023-05-02T07:36:28.572Z,99413.03
2023-05-02T07:38:55.752Z,99410.72
2023-05-02T07:41:22.445Z,99409.69
2023-05-02T07:43:49.146Z,99416.72
2023-05-02T07:46:16.005Z,99413.72
2023-05-02T07:48:43.183Z,99408.50
2023-05-02T07:51:11.108Z,99411.16
2023-05-02T07:53:37.938Z,99414.47
2023-05-02T07:56:07.416Z,99418.97
2023-05-02T07:58:38.554Z,99421.63
2023-05-02T08:01:05.430Z,99431.66
2023-05-02T08:03:32.424Z,99437.69
2023-05-02T08:05:59.284Z,99439.19
2023-05-02T08:08:26.164Z,99449.59
2023-05-02T08:10:52.890Z,99451.84
2023-05-02T08:13:19.820Z,99450.22
2023-05-02T08:15:46.632Z,99461.22
2023-05-02T08:18:13.527Z,99458.66
2023-05-02T08:20:40.261Z,99464.38
2023-05-02T08:23:07.011Z,99464.06
2023-05-02T08:25:33.795Z,99466.13
2023-05-02T08:28:00.728Z,99465.81
2023-05-02T08:30:27.569Z,99464.22
2023-05-02T08:32:54.303Z,99482.88
2023-05-02T08:35:21.360Z,99473.31
2023-05-02T08:37:48.102Z,99478.94
2023-05-02T08:40:15.441Z,99476.81
2023-05-02T08:42:44.987Z,99474.72
2023-05-02T08:45:14.216Z,99485.38
2023-05-02T08:47:43.183Z,99483.25
2023-05-02T08:50:12.119Z,99489.16
2023-05-02T08:52:39.231Z,99494.13
2023-05-02T08:55:07.894Z,99495.88
2023-05-02T08:57:34.654Z,99495.19
2023-05-02T09:00:02.231Z,99502.66
2023-05-02T09:02:48.509Z,99502.22
2023-05-02T09:05:20.420Z,99510.16
2023-05-02T09:07:48.978Z,99511.34
2023-05-02T09:10:16.460Z,99512.09
2023-05-02T09:12:43.634Z,99510.47
2023-05-02T09:15:14.845Z,99513.09
2023-05-02T09:17:48.989Z,99522.34
2023-05-02T09:20:16.388Z,99525.00
2023-05-02T09:22:51.097Z,99520.78
2023-05-02T09:25:18.470Z,99520.53
2023-05-02T09:27:56.207Z,99522.56
2023-05-02T09:30:26.814Z,99519.34
2023-05-02T09:32:56.222Z,99511.94
2023-05-02T09:35:24.223Z,99505.25
2023-05-02T09:37:53.778Z,99513.53
2023-05-02T09:40:20.869Z,99513.47
2023-05-02T09:42:48.150Z,99513.75
2023-05-02T09:45:22.521Z,99511.44
2023-05-02T09:47:49.693Z,99518.75
2023-05-02T09:50:37.343Z,99514.09
2023-05-02T09:53:06.187Z,99519.53
2023-05-02T09:55:33.010Z,99537.75
2023-05-02T09:58:00.252Z,99524.13
2023-05-02T10:00:46.206Z,99535.75
2023-05-02T10:03:16.846Z,99542.91
2023-05-02T10:05:45.262Z,99544.28
2023-05-02T10:08:13.009Z,99549.59
2023-05-02T10:10:41.618Z,99554.97
2023-05-02T10:13:09.162Z,99554.50
2023-05-02T10:15:38.261Z,99558.59
2023-05-02T10:18:13.513Z,99559.56
2023-05-02T10:20:45.032Z,99558.94
2023-05-02T10:23:12.408Z,99558.88
2023-05-02T10:25:39.772Z,99555.94
2023-05-02T10:28:06.803Z,99567.19
2023-05-02T10:30:34.338Z,99564.38
2023-05-02T10:33:01.859Z,99560.59
2023-05-02T10:35:28.948Z,99566.13
2023-05-02T10:37:56.291Z,99560.44
2023-05-02T10:40:23.365Z,99570.75
2023-05-02T10:42:51.843Z,99562.47
2023-05-02T10:45:35.667Z,99565.41
2023-05-02T10:48:27.931Z,99571.06
2023-05-02T10:51:01.556Z,99569.69
2023-05-02T10:53:37.252Z,99562.81
2023-05-02T10:56:25.873Z,99567.38
2023-05-02T10:58:53.956Z,99562.31
2023-05-02T11:01:34.556Z,99560.25
2023-05-02T11:04:07.763Z,99549.09
2023-05-02T11:06:36.420Z,99567.44
2023-05-02T11:09:38.794Z,99564.94
2023-05-02T11:12:05.760Z,99562.78
2023-05-02T11:14:45.198Z,99573.72
2023-05-02T11:17:11.991Z,99559.16
2023-05-02T11:19:58.955Z,99570.59
2023-05-02T11:22:34.841Z,99567.44
2023-05-02T11:25:02.163Z,99566.25
2023-05-02T11:27:49.474Z,99571.63
2023-05-02T11:30:44.204Z,99569.94
2023-05-02T11:33:12.328Z,99570.00
2023-05-02T11:35:42.396Z,99576.88
2023-05-02T11:38:13.585Z,99577.66
2023-05-02T11:40:40.625Z,99581.63
2023-05-02T11:43:18.642Z,99578.81
2023-05-02T11:45:45.826Z,99574.91
2023-05-02T11:48:14.003Z,99583.03
2023-05-02T11:50:51.593Z,99588.78
2023-05-02T11:53:22.648Z,99587.34
2023-05-02T11:55:57.674Z,99586.63
2023-05-02T11:58:34.151Z,99598.97
2023-05-02T12:01:15.098Z,99609.34
2023-05-02T12:03:42.344Z,99601.63
2023-05-02T12:06:12.263Z,99604.63
2023-05-02T12:08:40.687Z,99606.31
2023-05-02T12:11:09.501Z,99609.72
2023-05-02T12:13:45.287Z,99620.66
2023-05-02T12:16:12.052Z,99605.31
2023-05-02T12:18:38.848Z,99624.72
2023-05-02T12:21:06.036Z,99625.63
2023-05-02T12:23:34.003Z,99624.84
2023-05-02T12:26:25.896Z,99628.25
2023-05-02T12:28:54.997Z,99632.63
2023-05-02T12:31:22.159Z,99635.03
2023-05-02T12:33:50.525Z,99633.97
2023-05-02T12:36:18.082Z,99642.47
2023-05-02T12:38:49.586Z,99638.72
2023-05-02T12:41:16.417Z,99658.16
2023-05-02T12:43:48.265Z,99653.13
2023-05-02T12:46:15.104Z,99659.94
2023-05-02T12:48:42.051Z,99651.94
2023-05-02T12:51:21.489Z,99664.13
2023-05-02T12:53:48.273Z,99677.19
2023-05-02T12:56:15.159Z,99671.25
2023-05-02T12:58:48.405Z,99680.53
2023-05-02T13:01:15.742Z,99677.78
2023-05-02T13:03:43.608Z,99684.69
2023-05-02T13:06:10.738Z,99690.69
2023-05-02T13:08:37.536Z,99692.78
2023-05-02T13:11:04.717Z,99693.31
2023-05-02T13:13:32.890Z,99694.19
2023-05-02T13:15:59.871Z,99702.25
2023-05-02T13:18:28.418Z,99694.19
2023-05-02T13:20:55.381Z,99704.47
2023-05-02T13:23:22.387Z,99703.63
2023-05-02T13:25:49.269Z,99699.75
2023-05-02T13:28:16.094Z,99703.16
2023-05-02T13:30:42.895Z,99705.81
2023-05-02T13:33:09.732Z,99706.34
2023-05-02T13:35:36.626Z,99713.59
2023-05-02T13:38:04.172Z,99709.59
2023-05-02T13:40:30.961Z,99715.00
2023-05-02T13:42:57.900Z,99716.13
2023-05-02T13:45:24.994Z,99710.81
2023-05-02T13:47:51.785Z,99720.13
2023-05-02T13:50:18.512Z,99722.00
2023-05-02T13:52:47.688Z,99718.41
2023-05-02T13:55:15.796Z,99720.41
2023-05-02T13:57:42.562Z,99722.19
2023-05-02T14:00:10.500Z,99728.31
2023-05-02T14:02:37.891Z,99723.69
2023-05-02T14:05:05.134Z,99731.34
2023-05-02T14:07:32.028Z,99737.06
2023-05-02T14:09:58.744Z,99740.00
2023-05-02T14:12:26.123Z,99742.50
2023-05-02T14:14:52.934Z,99743.03
2023-05-02T14:17:19.837Z,99749.28
2023-05-02T14:19:47.047Z,99746.91
2023-05-02T14:22:13.833Z,99747.78
2023-05-02T14:24:40.741Z,99753.19
2023-05-02T14:27:09.530Z,99756.09
2023-05-02T14:29:36.279Z,99755.25
2023-05-02T14:32:03.025Z,99759.16
2023-05-02T14:34:29.904Z,99765.25
2023-05-02T14:36:56.690Z,99770.38
2023-05-02T14:39:23.496Z,99771.34
2023-05-02T14:41:50.325Z,99769.81
2023-05-02T14:44:18.525Z,99769.69
2023-05-02T14:46:45.345Z,99775.47
2023-05-02T14:49:12.102Z,99779.22
2023-05-02T14:51:39.715Z,99780.25
2023-05-02T14:54:07.456Z,99793.84
2023-05-02T14:56:34.233Z,99793.88
2023-05-02T14:59:01.036Z,99800.88
2023-05-02T15:01:27.871Z,99789.50
2023-05-02T15:04:06.642Z,99788.25
2023-05-02T15:06:35.425Z,99792.56
2023-05-02T15:09:02.551Z,99799.38
2023-05-02T15:11:29.222Z,99802.88
2023-05-02T15:13:58.438Z,99805.09
2023-05-02T15:16:27.382Z,99803.44
2023-05-02T15:18:54.538Z,99805.56
2023-05-02T15:21:21.539Z,99808.22
2023-05-02T15:23:48.245Z,99819.91
2023-05-02T15:26:15.374Z,99821.84
2023-05-02T15:28:42.110Z,99818.59
2023-05-02T15:31:08.943Z,99816.69
2023-05-02T15:33:35.788Z,99815.13
2023-05-02T15:36:02.734Z,99823.19
2023-05-02T15:38:29.565Z,99823.41
2023-05-02T15:41:00.585Z,99832.16
2023-05-02T15:43:27.722Z,99835.88
2023-05-02T15:45:56.037Z,99832.44
2023-05-02T15:48:23.397Z,99834.13
2023-05-02T15:50:50.155Z,99832.59
2023-05-02T15:53:17.456Z,99827.75
2023-05-02T15:55:46.114Z,99834.13
2023-05-02T15:58:13.557Z,99827.81
2023-05-02T16:00:40.605Z,99838.47
2023-05-02T16:03:12.356Z,99842.81
2023-05-02T16:05:39.322Z,99843.78
2023-05-02T16:08:06.345Z,99850.44
2023-05-02T16:10:33.361Z,99853.59
2023-05-02T16:13:00.087Z,99856.72
2023-05-02T16:15:26.896Z,99864.63
2023-05-02T16:17:53.770Z,99862.88
2023-05-02T16:20:20.701Z,99864.91
2023-05-02T16:22:48.738Z,99863.59
2023-05-02T16:25:17.178Z,99860.59
2023-05-02T16:27:43.927Z,99867.84
2023-05-02T16:30:11.314Z,99864.25
2023-05-02T16:32:38.179Z,99862.56
2023-05-02T16:35:07.617Z,99858.81
2023-05-02T16:37:35.447Z,99866.94
2023-05-02T16:40:03.214Z,99866.69
2023-05-02T16:42:30.604Z,99875.03
2023-05-02T16:44:57.740Z,99865.56
2023-05-02T16:47:24.641Z,99865.00
2023-05-02T16:49:56.075Z,99881.50
2023-05-02T16:52:23.028Z,99873.53
2023-05-02T16:54:49.985Z,99869.16
2023-05-02T16:57:23.500Z,99872.28
2023-05-02T16:59:52.350Z,99876.28
2023-05-02T17:02:21.169Z,99876.50
2023-05-02T17:04:48.916Z,99876.25
2023-05-02T17:07:15.896Z,99883.13
2023-05-02T17:09:43.019Z,99880.81
2023-05-02T17:12:13.514Z,99880.31
2023-05-02T17:14:42.571Z,99881.25
2023-05-02T17:17:10.203Z,99880.16
2023-05-02T17:19:37.150Z,99882.22
2023-05-02T17:22:05.442Z,99882.41
2023-05-02T17:24:32.821Z,99882.81
2023-05-02T17:26:59.703Z,99889.09
2023-05-02T17:29:26.661Z,99890.06
2023-05-02T17:31:53.568Z,99895.56
2023-05-02T17:34:25.935Z,99888.81
2023-05-02T17:36:52.796Z,99896.59
2023-05-02T17:39:19.674Z,99898.47
2023-05-02T17:41:46.560Z,99899.91
2023-05-02T17:44:13.341Z,99906.59
2023-05-02T17:46:40.192Z,99901.16
2023-05-02T17:49:07.021Z,99902.88
2023-05-02T17:51:34.064Z,99900.38
2023-05-02T17:54:01.213Z,99903.84
2023-05-02T17:56:28.666Z,99912.31
2023-05-02T17:58:56.470Z,99920.78
2023-05-02T18:01:23.230Z,99926.81
2023-05-02T18:03:50.236Z,99928.41
2023-05-02T18:06:18.471Z,99934.94
2023-05-02T18:08:45.656Z,99934.78
2023-05-02T18:11:19.950Z,99936.19
2023-05-02T18:13:46.701Z,99940.50
2023-05-02T18:16:14.369Z,99940.22
2023-05-02T18:18:41.616Z,99933.78
2023-05-02T18:21:09.881Z,99946.69
2023-05-02T18:23:36.665Z,99954.94
2023-05-02T18:26:03.934Z,99949.78
2023-05-02T18:28:30.673Z,99953.88
2023-05-02T18:30:57.579Z,99954.34
2023-05-02T18:33:24.418Z,99954.47
2023-05-02T18:35:51.172Z,99957.47
2023-05-02T18:38:18.494Z,99964.97
2023-05-02T18:40:45.456Z,99962.22
2023-05-02T18:43:12.211Z,99967.72
2023-05-02T18:45:39.237Z,99968.81
2023-05-02T18:48:06.462Z,99970.31
2023-05-02T18:50:33.292Z,99978.34
2023-05-02T18:53:00.158Z,99984.03
2023-05-02T18:55:26.875Z,99987.13
2023-05-02T18:57:53.613Z,99989.66
2023-05-02T19:00:20.625Z,99985.59
2023-05-02T19:02:48.106Z,99988.97
2023-05-02T19:05:15.379Z,99994.19
2023-05-02T19:07:42.573Z,99986.81
2023-05-02T19:10:11.553Z,99993.72
2023-05-02T19:12:38.665Z,99992.16
2023-05-02T19:15:06.899Z,99995.38
2023-05-02T19:17:33.888Z,99993.47
2023-05-02T19:20:00.625Z,99999.97
2023-05-02T19:22:27.929Z,100009.69
2023-05-02T19:24:54.743Z,100004.16
2023-05-02T19:27:21.470Z,100004.31
2023-05-02T19:29:48.389Z,100013.78
2023-05-02T19:32:15.301Z,100016.13
2023-05-02T19:34:42.349Z,100012.16
2023-05-02T19:37:09.103Z,100015.78
2023-05-02T19:39:35.919Z,100015.25
2023-05-02T19:42:03.479Z,100016.97
2023-05-02T19:44:30.465Z,100012.50
2023-05-02T19:46:57.143Z,100020.09
2023-05-02T19:49:23.935Z,100026.91
2023-05-02T19:51:50.744Z,100025.13
2023-05-02T19:54:17.399Z,100025.63
2023-05-02T19:56:44.321Z,100025.53
2023-05-02T19:59:11.094Z,100021.94
2023-05-02T20:01:37.967Z,100025.00
2023-05-02T20:04:04.854Z,100025.72
2023-05-02T20:06:32.511Z,100032.00
2023-05-02T20:08:59.400Z,100032.03
2023-05-02T20:11:26.438Z,100042.78
2023-05-02T20:13:54.581Z,100043.47
2023-05-02T20:16:21.501Z,100039.97
2023-05-02T20:18:48.374Z,100036.75
2023-05-02T20:21:15.309Z,100034.03
2023-05-02T20:23:43.741Z,100042.97
2023-05-02T20:26:10.756Z,100033.53
2023-05-02T20:28:38.123Z,100033.53
2023-05-02T20:31:05.098Z,100035.03
2023-05-02T20:33:43.947Z,100031.47
2023-05-02T20:36:12.904Z,100036.41
2023-05-02T20:38:42.743Z,100040.88
2023-05-02T20:41:12.942Z,100045.91
2023-05-02T20:43:45.405Z,100043.72
2023-05-02T20:46:13.722Z,100043.47
2023-05-02T20:48:40.604Z,100044.00
2023-05-02T20:51:08.896Z,100049.81
2023-05-02T20:53:36.872Z,100048.16
2023-05-02T20:56:03.732Z,100045.31
2023-05-02T20:58:30.460Z,100054.00
2023-05-02T21:00:57.374Z,100058.69
2023-05-02T21:03:24.177Z,100062.28
2023-05-02T21:05:52.713Z,100065.69
2023-05-02T21:08:19.992Z,100063.06
2023-05-02T21:10:47.110Z,100059.56
2023-05-02T21:13:14.018Z,100069.28
2023-05-02T21:15:41.107Z,100066.63
2023-05-02T21:18:07.919Z,100060.88
2023-05-02T21:20:36.218Z,100064.09
2023-05-02T21:23:02.965Z,100073.56
2023-05-02T21:25:29.926Z,100077.22
2023-05-02T21:27:56.785Z,100082.34
2023-05-02T21:30:24.695Z,100089.78
2023-05-02T21:32:51.609Z,100094.16
2023-05-02T21:35:18.388Z,100093.13
2023-05-02T21:37:45.137Z,100095.72
2023-05-02T21:40:12.545Z,100088.66
2023-05-02T21:42:39.326Z,100092.78
2023-05-02T21:45:06.968Z,100092.22
2023-05-02T21:47:33.857Z,100089.59
2023-05-02T21:50:00.849Z,100095.69
2023-05-02T21:52:28.410Z,100096.34
2023-05-02T21:54:55.112Z,100095.94
2023-05-02T21:57:21.865Z,100090.47
2023-05-02T21:59:48.597Z,100090.97
2023-05-02T22:02:15.390Z,100091.34
2023-05-02T22:04:42.159Z,100091.34
2023-05-02T22:07:08.889Z,100093.59
2023-05-02T22:09:35.656Z,100091.38
2023-05-02T22:12:03.237Z,100086.53
2023-05-02T22:14:37.623Z,100076.00
2023-05-02T22:17:10.808Z,100088.19
2023-05-02T22:19:37.895Z,100086.47
2023-05-02T22:22:05.644Z,100090.72
2023-05-02T22:24:32.378Z,100092.78
2023-05-02T22:26:59.181Z,100097.19
2023-05-02T22:29:25.961Z,100090.38
2023-05-02T22:31:52.755Z,100088.38
2023-05-02T22:34:19.641Z,100091.78
2023-05-02T22:36:46.565Z,100108.38
2023-05-02T22:39:15.892Z,100099.59
2023-05-02T22:41:43.180Z,100102.72
2023-05-02T22:44:10.322Z,100104.72
2023-05-02T22:46:38.393Z,100107.09
2023-05-02T22:49:10.596Z,100103.00
2023-05-02T22:51:41.792Z,100105.94
2023-05-02T22:54:08.809Z,100112.97
2023-05-02T22:56:35.682Z,100114.41
2023-05-02T22:59:02.644Z,100113.69
2023-05-02T23:01:29.536Z,100115.56
2023-05-02T23:03:56.601Z,100120.44
2023-05-02T23:06:23.594Z,100118.56
2023-05-02T23:08:50.401Z,100118.47
2023-05-02T23:11:17.129Z,100116.06
2023-05-02T23:13:43.801Z,100117.00
2023-05-02T23:16:10.646Z,100122.81
2023-05-02T23:18:37.463Z,100124.72
2023-05-02T23:21:04.674Z,100111.53
2023-05-02T23:23:31.523Z,100104.44
2023-05-02T23:25:58.475Z,100101.44
2023-05-02T23:28:26.327Z,100109.88
2023-05-02T23:30:53.933Z,100109.72
2023-05-02T23:33:20.844Z,100104.44
2023-05-02T23:35:48.048Z,100111.75
2023-05-02T23:38:14.868Z,100104.59
2023-05-02T23:40:41.589Z,100109.09
2023-05-02T23:43:09.047Z,100105.59
2023-05-02T23:45:35.915Z,100111.19
2023-05-02T23:48:02.783Z,100101.44
2023-05-02T23:50:29.565Z,100116.56
2023-05-02T23:52:56.313Z,100108.84
2023-05-02T23:55:23.048Z,100115.63
2023-05-02T23:57:49.857Z,100120.75
